Time;durP1;ratioP1;P1;durP2;ratioP2;P2;SDS_P1;SDS_P2;PMS_P1;PMS_P2;Temp;Humidity;BMP_temperature;BMP_pressure;BME280_temperature;BME280_humidity;BME280_pressure;Samples;Min_cycle;Max_cycle;Signal;HPM_P1;HPM_P2
2023/09/06 00:01:44;;;;;;;;;;;;;;;;;;5038410;28;19905;-74
2023/09/06 00:04:09;;;;;;;;;;;;;;;;;;5028254;28;19912;-75
2023/09/06 00:06:35;;;;;;;;;;;;;;;;;;5041224;28;19948;-75
2023/09/06 00:09:00;;;;;;;;;;;;;;;;;;5040465;28;19927;-75
2023/09/06 00:11:27;;;;;;;;;;;;;;;;;;5040402;28;19919;-77
2023/09/06 00:13:53;;;;;;;;;;;;;;;;;;5039536;28;20369;-75
2023/09/06 00:16:18;;;;;;;;;;;;;;;;;;5037990;28;19916;-76
2023/09/06 00:18:43;;;;;;;;;;;;;;;;;;5040209;28;19975;-76
2023/09/06 00:21:09;;;;;;;;;;;;;;;;;;5038765;28;20008;-75
2023/09/06 00:23:34;;;;;;;;;;;;;;;;;;5040100;28;19917;-74
2023/09/06 00:25:59;;;;;;;;;;;;;;;;;;5040668;28;20239;-75
2023/09/06 00:28:24;;;;;;;;;;;;;;;;;;5038029;28;20220;-76
2023/09/06 00:30:49;;;;;;;;;;;;;;;;;;5039759;28;19909;-76
2023/09/06 00:33:14;;;;;;;;;;;;;;;;;;5038098;28;19969;-77
2023/09/06 00:35:40;;;;;;;;;;;;;;;;;;5055534;28;20252;-78
2023/09/06 00:38:05;;;;;;;;;;;;;;;;;;5038298;28;19995;-77
2023/09/06 00:40:31;;;;;;;;;;;;;;;;;;5036944;28;20901;-76
2023/09/06 00:42:59;;;;;;;;;;;;;;;;;;5031461;28;19992;-77
2023/09/06 00:45:26;;;;;;;;;;;;;;;;;;5039051;28;19920;-76
2023/09/06 00:47:51;;;;;;;;;;;;;;;;;;5038677;28;19986;-76
2023/09/06 00:50:16;;;;;;;;;;;;;;;;;;5038875;28;19974;-77
2023/09/06 00:52:41;;;;;;;;;;;;;;;;;;5040191;28;20816;-76
2023/09/06 00:55:07;;;;;;;;;;;;;;;;;;5038382;28;19931;-76
2023/09/06 00:57:32;;;;;;;;;;;;;;;;;;5030354;28;19917;-76
2023/09/06 01:00:01;;;;;;;;;;;;;;;;;;5037397;28;19983;-76
2023/09/06 01:02:26;;;;;;;;;;;;;;;;;;5039819;28;19952;-76
2023/09/06 01:04:51;;;;;;;;;;;;;;;;;;5038664;28;19956;-76
2023/09/06 01:07:16;;;;;;;;;;;;;;;;;;5030048;28;19964;-75
2023/09/06 01:09:41;;;;;;;;;;;;;;;;;;5038330;28;19940;-75
2023/09/06 01:12:10;;;;;;;;;;;;;;;;;;5038851;28;19955;-75
2023/09/06 01:14:40;;;;;;;;;;;;;;;;;;5038967;28;20355;-72
2023/09/06 01:17:05;;;;;;;;;;;;;;;;;;5045693;28;19928;-73
2023/09/06 01:19:30;;;;;;;;;;;;;;;;;;5026511;28;19909;-73
2023/09/06 01:21:58;;;;;;;;;;;;;;;;;;5032902;28;20583;-74
2023/09/06 01:24:24;;;;;;;;;;;;;;;;;;5038648;28;19995;-74
2023/09/06 01:26:49;;;;;;;;;;;;;;;;;;5054676;28;19908;-74
2023/09/06 01:29:15;;;;;;;;;;;;;;;;;;5053812;28;19992;-74
2023/09/06 01:31:40;;;;;;;;;;;;;;;;;;5029375;28;19913;-75
2023/09/06 01:34:05;;;;;;;;;;;;;;;;;;5039698;28;19912;-73
2023/09/06 01:36:30;;;;;;;;;;;;;;;;;;5036945;28;20429;-76
2023/09/06 01:38:55;;;;;;;;;;;;;;;;;;5039510;28;19939;-76
2023/09/06 01:41:20;;;;;;;;;;;;;;;;;;5040451;28;19920;-75
2023/09/06 01:43:46;;;;;;;;;;;;;;;;;;5038954;28;19912;-73
2023/09/06 01:46:11;;;;;;;;;;;;;;;;;;5038574;28;19908;-73
2023/09/06 01:48:36;;;;;;;;;;;;;;;;;;5038323;28;20270;-75
2023/09/06 01:51:03;;;;;;;;;;;;;;;;;;5038742;28;20251;-74
2023/09/06 01:53:29;;;;;;;;;;;;;;;;;;5029089;28;20348;-75
2023/09/06 01:55:54;;;;;;;;;;;;;;;;;;5053458;28;19936;-74
2023/09/06 01:58:19;;;;;;;;;;;;;;;;;;5037321;28;19913;-75
2023/09/06 02:00:44;;;;;;;;;;;;;;;;;;5038642;28;19912;-75
2023/09/06 02:03:09;;;;;;;;;;;;;;;;;;5037387;28;19932;-74
2023/09/06 02:05:35;;;;;;;;;;;;;;;;;;5038217;28;19920;-74
2023/09/06 02:08:01;;;;;;;;;;;;;;;;;;5037932;28;20037;-73
2023/09/06 02:10:27;;;;;;;;;;;;;;;;;;5039247;28;19936;-74
2023/09/06 02:12:52;;;;;;;;;;;;;;;;;;5040140;28;20279;-74
2023/09/06 02:15:17;;;;;;;;;;;;;;;;;;5039686;28;20034;-76
2023/09/06 02:17:42;;;;;;;;;;;;;;;;;;5027668;28;19908;-74
2023/09/06 02:20:17;;;;;;;;;;;;;;;;;;5038230;28;19913;-74
2023/09/06 02:22:42;;;;;;;;;;;;;;;;;;5035930;28;20362;-74
2023/09/06 02:25:08;;;;;;;;;;;;;;;;;;5037003;28;19909;-75
2023/09/06 02:27:33;;;;;;;;;;;;;;;;;;5036685;28;19913;-77
2023/09/06 02:29:58;;;;;;;;;;;;;;;;;;5036759;28;20289;-76
2023/09/06 02:32:24;;;;;;;;;;;;;;;;;;5038950;28;19917;-76
2023/09/06 02:34:49;;;;;;;;;;;;;;;;;;5036729;28;20062;-75
2023/09/06 02:37:15;;;;;;;;;;;;;;;;;;5035299;28;19919;-77
2023/09/06 02:39:40;;;;;;;;;;;;;;;;;;5024253;28;20215;-75
2023/09/06 02:42:05;;;;;;;;;;;;;;;;;;5025174;28;19955;-76
2023/09/06 02:44:30;;;;;;;;;;;;;;;;;;5027482;28;19908;-74
2023/09/06 02:46:55;;;;;;;;;;;;;;;;;;5041047;28;19924;-74
2023/09/06 02:49:20;;;;;;;;;;;;;;;;;;5040017;28;20350;-76
2023/09/06 02:51:47;;;;;;;;;;;;;;;;;;5041581;28;20059;-77
2023/09/06 02:54:13;;;;;;;;;;;;;;;;;;5040428;28;19983;-77
2023/09/06 02:56:39;;;;;;;;;;;;;;;;;;5040960;28;19920;-78
2023/09/06 02:59:07;;;;;;;;;;;;;;;;;;5041129;28;19913;-77
2023/09/06 03:01:32;;;;;;;;;;;;;;;;;;5041142;28;19909;-74
2023/09/06 03:03:58;;;;;;;;;;;;;;;;;;5042194;28;20019;-77
2023/09/06 03:06:33;;;;;;;;;;;;;;;;;;5041038;28;19912;-75
2023/09/06 03:09:06;;;;;;;;;;;;;;;;;;5035536;28;19916;-76
2023/09/06 03:11:31;;;;;;;;;;;;;;;;;;5036871;28;19913;-75
2023/09/06 03:13:57;;;;;;;;;;;;;;;;;;5039890;28;19943;-77
2023/09/06 03:16:22;;;;;;;;;;;;;;;;;;5041813;28;20055;-77
2023/09/06 03:18:49;;;;;;;;;;;;;;;;;;5042120;28;19917;-74
2023/09/06 03:21:14;;;;;;;;;;;;;;;;;;5041485;28;19935;-74
2023/09/06 03:23:39;;;;;;;;;;;;;;;;;;5041758;28;19908;-73
2023/09/06 03:26:05;;;;;;;;;;;;;;;;;;5041015;28;19920;-74
2023/09/06 03:28:31;;;;;;;;;;;;;;;;;;5038323;28;20228;-74
2023/09/06 03:30:59;;;;;;;;;;;;;;;;;;5039993;28;19966;-76
2023/09/06 03:33:25;;;;;;;;;;;;;;;;;;5056304;28;20347;-73
2023/09/06 03:35:50;;;;;;;;;;;;;;;;;;5041077;28;20092;-77
2023/09/06 03:38:15;;;;;;;;;;;;;;;;;;5056170;28;19924;-74
2023/09/06 03:40:42;;;;;;;;;;;;;;;;;;5040025;28;20629;-74
2023/09/06 03:43:17;;;;;;;;;;;;;;;;;;5039193;28;19943;-73
2023/09/06 03:45:44;;;;;;;;;;;;;;;;;;5040591;28;19913;-73
2023/09/06 03:48:09;;;;;;;;;;;;;;;;;;5040708;28;19916;-74
2023/09/06 03:50:34;;;;;;;;;;;;;;;;;;5041953;28;19923;-75
2023/09/06 03:52:59;;;;;;;;;;;;;;;;;;5034700;28;20347;-76
2023/09/06 03:55:24;;;;;;;;;;;;;;;;;;5034775;28;20030;-75
2023/09/06 03:57:52;;;;;;;;;;;;;;;;;;5033609;28;20331;-75
2023/09/06 04:00:24;;;;;;;;;;;;;;;;;;5036118;28;19962;-76
2023/09/06 04:02:50;;;;;;;;;;;;;;;;;;5037361;28;19952;-73
2023/09/06 04:05:15;;;;;;;;;;;;;;;;;;5038381;28;19944;-74
2023/09/06 04:07:40;;;;;;;;;;;;;;;;;;5039188;28;19920;-75
2023/09/06 04:10:16;;;;;;;;;;;;;;;;;;5040698;28;19956;-74
2023/09/06 04:12:41;;;;;;;;;;;;;;;;;;5027898;28;19938;-77
2023/09/06 04:15:07;;;;;;;;;;;;;;;;;;5027138;28;19920;-77
2023/09/06 04:17:32;;;;;;;;;;;;;;;;;;5026134;28;19923;-75
2023/09/06 04:19:57;;;;;;;;;;;;;;;;;;5025918;28;19916;-75
2023/09/06 04:22:23;;;;;;;;;;;;;;;;;;5024634;28;19920;-75
2023/09/06 04:24:49;;;;;;;;;;;;;;;;;;5027629;28;20015;-75
2023/09/06 04:27:14;;;;;;;;;;;;;;;;;;5040610;28;20320;-76
2023/09/06 04:29:39;;;;;;;;;;;;;;;;;;5040449;28;20380;-76
2023/09/06 04:32:04;;;;;;;;;;;;;;;;;;5039055;28;20308;-76
2023/09/06 04:34:29;;;;;;;;;;;;;;;;;;5031642;28;19985;-73
2023/09/06 04:36:55;;;;;;;;;;;;;;;;;;5024893;28;19912;-74
2023/09/06 04:39:20;;;;;;;;;;;;;;;;;;5021028;28;19909;-75
2023/09/06 04:41:45;;;;;;;;;;;;;;;;;;5031231;28;20388;-78
2023/09/06 04:44:10;;;;;;;;;;;;;;;;;;5030841;28;20024;-75
2023/09/06 04:46:35;;;;;;;;;;;;;;;;;;5033241;28;19948;-77
2023/09/06 04:49:01;;;;;;;;;;;;;;;;;;5032809;28;19916;-76
2023/09/06 04:51:27;;;;;;;;;;;;;;;;;;5039536;28;19909;-73
2023/09/06 04:53:53;;;;;;;;;;;;;;;;;;5037624;28;19908;-74
2023/09/06 04:56:19;;;;;;;;;;;;;;;;;;5029646;28;19921;-74
2023/09/06 04:58:45;;;;;;;;;;;;;;;;;;5027841;28;19912;-75
2023/09/06 05:01:10;;;;;;;;;;;;;;;;;;5027815;28;19923;-71
2023/09/06 05:03:35;;;;;;;;;;;;;;;;;;5029372;28;19908;-74
2023/09/06 05:06:01;;;;;;;;;;;;;;;;;;5035196;28;19908;-75
2023/09/06 05:08:27;;;;;;;;;;;;;;;;;;5035511;28;19913;-71
2023/09/06 05:10:52;;;;;;;;;;;;;;;;;;5038521;28;19966;-76
2023/09/06 05:13:18;;;;;;;;;;;;;;;;;;5036957;28;20382;-75
2023/09/06 05:15:43;;;;;;;;;;;;;;;;;;5036835;28;19971;-76
2023/09/06 05:18:08;;;;;;;;;;;;;;;;;;5039191;28;19935;-76
2023/09/06 05:20:34;;;;;;;;;;;;;;;;;;5039838;28;19946;-75
2023/09/06 05:22:59;;;;;;;;;;;;;;;;;;5037402;28;19948;-74
2023/09/06 05:25:24;;;;;;;;;;;;;;;;;;5038400;28;19963;-75
2023/09/06 05:27:49;;;;;;;;;;;;;;;;;;5040447;28;20347;-75
2023/09/06 05:30:14;;;;;;;;;;;;;;;;;;5037866;28;19913;-74
2023/09/06 05:32:39;;;;;;;;;;;;;;;;;;5037979;28;19908;-74
2023/09/06 05:35:05;;;;;;;;;;;;;;;;;;5038508;28;19917;-77
2023/09/06 05:37:30;;;;;;;;;;;;;;;;;;5037444;28;19916;-78
2023/09/06 05:39:55;;;;;;;;;;;;;;;;;;5037406;28;20374;-77
2023/09/06 05:42:20;;;;;;;;;;;;;;;;;;5036488;28;19908;-76
2023/09/06 05:44:45;;;;;;;;;;;;;;;;;;5034429;28;19921;-78
2023/09/06 05:47:11;;;;;;;;;;;;;;;;;;5030236;28;19912;-76
2023/09/06 05:49:36;;;;;;;;;;;;;;;;;;5036970;28;19927;-76
2023/09/06 05:52:02;;;;;;;;;;;;;;;;;;5025888;28;20462;-78
2023/09/06 05:54:27;;;;;;;;;;;;;;;;;;5025612;28;19932;-77
2023/09/06 05:56:52;;;;;;;;;;;;;;;;;;5037582;28;20260;-79
2023/09/06 05:59:19;;;;;;;;;;;;;;;;;;5037843;28;19908;-77
2023/09/06 06:01:44;;;;;;;;;;;;;;;;;;5035002;28;19956;-78
2023/09/06 06:04:11;;;;;;;;;;;;;;;;;;5053514;28;19994;-79
2023/09/06 06:06:36;;;;;;;;;;;;;;;;;;5037991;28;20339;-77
2023/09/06 06:09:01;;;;;;;;;;;;;;;;;;5031773;28;20004;-76
2023/09/06 06:11:26;;;;;;;;;;;;;;;;;;5018564;28;19921;-75
2023/09/06 06:13:52;;;;;;;;;;;;;;;;;;5020935;28;19917;-76
2023/09/06 06:16:17;;;;;;;;;;;;;;;;;;5019762;28;19974;-71
2023/09/06 06:18:42;;;;;;;;;;;;;;;;;;5024782;28;19920;-71
2023/09/06 06:21:07;;;;;;;;;;;;;;;;;;5023361;28;19916;-72
2023/09/06 06:23:32;;;;;;;;;;;;;;;;;;5024114;28;19963;-73
2023/09/06 06:25:57;;;;;;;;;;;;;;;;;;5023559;28;19940;-75
2023/09/06 06:28:23;;;;;;;;;;;;;;;;;;5025592;28;20007;-73
2023/09/06 06:30:48;;;;;;;;;;;;;;;;;;5024804;28;19967;-75
2023/09/06 06:33:13;;;;;;;;;;;;;;;;;;5024529;28;20365;-74
2023/09/06 06:35:39;;;;;;;;;;;;;;;;;;5025471;28;19955;-74
2023/09/06 06:38:04;;;;;;;;;;;;;;;;;;5025140;28;19977;-73
2023/09/06 06:40:29;;;;;;;;;;;;;;;;;;5023943;28;19936;-75
2023/09/06 06:42:55;;;;;;;;;;;;;;;;;;5026258;28;19920;-73
2023/09/06 06:45:20;;;;;;;;;;;;;;;;;;5026011;28;19912;-72
2023/09/06 06:47:46;;;;;;;;;;;;;;;;;;5025549;28;19912;-73
2023/09/06 06:50:11;;;;;;;;;;;;;;;;;;5027633;28;19925;-74
2023/09/06 06:52:37;;;;;;;;;;;;;;;;;;5029853;28;20349;-73
2023/09/06 06:55:03;;;;;;;;;;;;;;;;;;5024279;28;19924;-73
2023/09/06 06:57:29;;;;;;;;;;;;;;;;;;5024572;28;19920;-76
2023/09/06 06:59:54;;;;;;;;;;;;;;;;;;5021724;28;20476;-74
2023/09/06 07:02:19;;;;;;;;;;;;;;;;;;5024151;28;19919;-73
2023/09/06 07:04:44;;;;;;;;;;;;;;;;;;5024394;28;19948;-75
2023/09/06 07:07:10;;;;;;;;;;;;;;;;;;5017377;28;19913;-77
2023/09/06 07:09:36;;;;;;;;;;;;;;;;;;5016598;28;19974;-78
2023/09/06 07:12:01;;;;;;;;;;;;;;;;;;5025061;28;19954;-76
2023/09/06 07:14:26;;;;;;;;;;;;;;;;;;5027067;28;20274;-76
2023/09/06 07:16:51;;;;;;;;;;;;;;;;;;5016585;28;19917;-76
2023/09/06 07:19:16;;;;;;;;;;;;;;;;;;5036166;28;19909;-79
2023/09/06 07:21:42;;;;;;;;;;;;;;;;;;5024571;28;20067;-79
2023/09/06 07:24:09;;;;;;;;;;;;;;;;;;5025080;28;20519;-78
2023/09/06 07:26:35;;;;;;;;;;;;;;;;;;5023047;28;19909;-80
2023/09/06 07:29:00;;;;;;;;;;;;;;;;;;5024371;28;20236;-78
2023/09/06 07:31:25;;;;;;;;;;;;;;;;;;5028690;28;19940;-80
2023/09/06 07:33:50;;;;;;;;;;;;;;;;;;5027539;28;19917;-79
2023/09/06 07:36:15;;;;;;;;;;;;;;;;;;5029535;28;20247;-80
2023/09/06 07:38:41;;;;;;;;;;;;;;;;;;5030296;28;19952;-78
2023/09/06 07:41:06;;;;;;;;;;;;;;;;;;5028265;28;20476;-78
2023/09/06 07:43:31;;;;;;;;;;;;;;;;;;5029212;28;19913;-77
2023/09/06 07:45:56;;;;;;;;;;;;;;;;;;5024577;28;19912;-77
2023/09/06 07:48:22;;;;;;;;;;;;;;;;;;5027410;28;20015;-78
2023/09/06 07:50:48;;;;;;;;;;;;;;;;;;5024455;28;19956;-78
2023/09/06 07:53:13;;;;;;;;;;;;;;;;;;5022841;28;19916;-78
2023/09/06 07:55:38;;;;;;;;;;;;;;;;;;5026738;28;19932;-78
2023/09/06 07:58:04;;;;;;;;;;;;;;;;;;5024041;28;20372;-80
2023/09/06 08:00:31;;;;;;;;;;;;;;;;;;5024110;28;19916;-79
2023/09/06 08:02:56;;;;;;;;;;;;;;;;;;5026957;28;20344;-78
2023/09/06 08:05:21;;;;;;;;;;;;;;;;;;5028773;28;19920;-76
2023/09/06 08:07:46;;;;;;;;;;;;;;;;;;5029631;28;20412;-78
2023/09/06 08:10:13;;;;;;;;;;;;;;;;;;5028232;28;19967;-79
2023/09/06 08:12:38;;;;;;;;;;;;;;;;;;5030469;28;19913;-79
2023/09/06 08:15:03;;;;;;;;;;;;;;;;;;5023796;28;20251;-81
2023/09/06 08:17:29;;;;;;;;;;;;;;;;;;5026054;28;20067;-77
2023/09/06 08:19:54;;;;;;;;;;;;;;;;;;5029577;28;19912;-76
2023/09/06 08:22:19;;;;;;;;;;;;;;;;;;5028335;28;19912;-80
2023/09/06 08:24:44;;;;;;;;;;;;;;;;;;5028881;28;19912;-80
2023/09/06 08:27:09;;;;;;;;;;;;;;;;;;5026338;28;20007;-78
2023/09/06 08:29:34;;;;;;;;;;;;;;;;;;5029351;28;19967;-79
2023/09/06 08:32:00;;;;;;;;;;;;;;;;;;5026019;28;20395;-80
2023/09/06 08:34:25;;;;;;;;;;;;;;;;;;5026660;28;20350;-79
2023/09/06 08:36:51;;;;;;;;;;;;;;;;;;5028537;28;19936;-77
2023/09/06 08:39:16;;;;;;;;;;;;;;;;;;5027484;28;19971;-80
2023/09/06 08:41:41;;;;;;;;;;;;;;;;;;5026707;28;19935;-81
2023/09/06 08:44:07;;;;;;;;;;;;;;;;;;5028370;28;19926;-82
2023/09/06 08:46:33;;;;;;;;;;;;;;;;;;5027331;28;19919;-79
2023/09/06 08:48:58;;;;;;;;;;;;;;;;;;5026623;28;20322;-81
2023/09/06 08:51:23;;;;;;;;;;;;;;;;;;5026865;28;19916;-81
2023/09/06 08:53:48;;;;;;;;;;;;;;;;;;5021700;28;19954;-78
2023/09/06 08:56:16;;;;;;;;;;;;;;;;;;5028667;28;19920;-79
2023/09/06 08:58:41;;;;;;;;;;;;;;;;;;5027294;28;20007;-81
2023/09/06 09:01:07;;;;;;;;;;;;;;;;;;5025678;28;20360;-78
2023/09/06 09:03:32;;;;;;;;;;;;;;;;;;5027154;28;20389;-79
2023/09/06 09:05:57;;;;;;;;;;;;;;;;;;5025800;28;19909;-82
2023/09/06 09:08:22;;;;;;;;;;;;;;;;;;5027985;28;19917;-78
2023/09/06 09:10:47;;;;;;;;;;;;;;;;;;5027946;28;19909;-82
2023/09/06 09:13:13;;;;;;;;;;;;;;;;;;5026924;28;19948;-83
2023/09/06 09:15:38;;;;;;;;;;;;;;;;;;5024397;28;21249;-82
2023/09/06 09:18:03;;;;;;;;;;;;;;;;;;5028049;28;20266;-82
2023/09/06 09:20:28;;;;;;;;;;;;;;;;;;5027664;28;20384;-81
2023/09/06 09:22:53;;;;;;;;;;;;;;;;;;5028687;28;19912;-80
2023/09/06 09:25:23;;;;;;;;;;;;;;;;;;5029134;28;19916;-79
2023/09/06 09:27:55;;;;;;;;;;;;;;;;;;5023161;28;19916;-78
2023/09/06 09:30:21;;;;;;;;;;;;;;;;;;5024372;28;19913;-80
2023/09/06 09:32:46;;;;;;;;;;;;;;;;;;5023911;28;19983;-78
2023/09/06 09:35:11;;;;;;;;;;;;;;;;;;5026137;28;19931;-82
2023/09/06 09:37:36;;;;;;;;;;;;;;;;;;5018649;28;20027;-81
2023/09/06 09:40:01;;;;;;;;;;;;;;;;;;5025451;28;20332;-83
2023/09/06 09:42:26;;;;;;;;;;;;;;;;;;5026149;28;19916;-81
2023/09/06 09:44:52;;;;;;;;;;;;;;;;;;5026553;28;19916;-80
2023/09/06 09:47:17;;;;;;;;;;;;;;;;;;5025172;28;19909;-80
2023/09/06 09:49:42;;;;;;;;;;;;;;;;;;5038959;28;19956;-80
2023/09/06 09:52:07;;;;;;;;;;;;;;;;;;5025472;28;20267;-80
2023/09/06 09:54:33;;;;;;;;;;;;;;;;;;5024156;28;19917;-79
2023/09/06 09:56:58;;;;;;;;;;;;;;;;;;5026595;28;19913;-83
2023/09/06 09:59:24;;;;;;;;;;;;;;;;;;5026080;28;20486;-80
2023/09/06 10:01:51;;;;;;;;;;;;;;;;;;5026686;28;19913;-83
2023/09/06 10:04:16;;;;;;;;;;;;;;;;;;5025755;28;19978;-82
2023/09/06 10:06:41;;;;;;;;;;;;;;;;;;5024824;28;20343;-82
2023/09/06 10:09:12;;;;;;;;;;;;;;;;;;5027560;28;19995;-80
2023/09/06 10:11:38;;;;;;;;;;;;;;;;;;5041998;28;19917;-79
2023/09/06 10:14:04;;;;;;;;;;;;;;;;;;5023981;28;20015;-82
2023/09/06 10:16:29;;;;;;;;;;;;;;;;;;5027777;28;20464;-82
2023/09/06 10:18:54;;;;;;;;;;;;;;;;;;5023190;28;19927;-81
2023/09/06 10:21:19;;;;;;;;;;;;;;;;;;5022969;28;19923;-77
2023/09/06 10:23:45;;;;;;;;;;;;;;;;;;5024351;28;19912;-80
2023/09/06 10:26:10;;;;;;;;;;;;;;;;;;5024364;28;19952;-81
2023/09/06 10:28:35;;;;;;;;;;;;;;;;;;5024723;28;20004;-82
2023/09/06 10:31:09;;;;;;;;;;;;;;;;;;5024749;28;19948;-80
2023/09/06 10:33:41;;;;;;;;;;;;;;;;;;5025153;28;20432;-83
2023/09/06 10:36:07;;;;;;;;;;;;;;;;;;5031800;28;20006;-82
2023/09/06 10:38:35;;;;;;;;;;;;;;;;;;5029026;28;19966;-79
2023/09/06 10:41:00;;;;;;;;;;;;;;;;;;5023618;28;19904;-80
2023/09/06 10:43:25;;;;;;;;;;;;;;;;;;5025106;28;19935;-77
2023/09/06 10:45:50;;;;;;;;;;;;;;;;;;5032501;28;19924;-80
2023/09/06 10:48:16;;;;;;;;;;;;;;;;;;5038628;28;20023;-82
2023/09/06 10:50:41;;;;;;;;;;;;;;;;;;5052569;28;19920;-79
2023/09/06 10:53:07;;;;;;;;;;;;;;;;;;5024322;28;19999;-79
2023/09/06 10:55:32;;;;;;;;;;;;;;;;;;5025548;28;19985;-83
2023/09/06 10:57:57;;;;;;;;;;;;;;;;;;5026703;28;20012;-81
2023/09/06 11:00:25;;;;;;;;;;;;;;;;;;5021789;28;19914;-82
2023/09/06 11:02:51;;;;;;;;;;;;;;;;;;5022499;28;19924;-79
2023/09/06 11:05:16;;;;;;;;;;;;;;;;;;5025279;28;19917;-79
2023/09/06 11:07:41;;;;;;;;;;;;;;;;;;5028674;28;19923;-80
2023/09/06 11:10:06;;;;;;;;;;;;;;;;;;5029478;28;20062;-79
2023/09/06 11:12:32;;;;;;;;;;;;;;;;;;5028568;28;19928;-82
2023/09/06 11:14:57;;;;;;;;;;;;;;;;;;5026180;28;20000;-80
2023/09/06 11:17:23;;;;;;;;;;;;;;;;;;5031631;28;20029;-80
2023/09/06 11:19:48;;;;;;;;;;;;;;;;;;5041391;28;19956;-82
2023/09/06 11:22:13;;;;;;;;;;;;;;;;;;5039395;28;19939;-81
2023/09/06 11:24:38;;;;;;;;;;;;;;;;;;5039943;28;19939;-82
2023/09/06 11:27:04;;;;;;;;;;;;;;;;;;5040585;28;20972;-81
2023/09/06 11:29:30;;;;;;;;;;;;;;;;;;5041156;28;19978;-81
2023/09/06 11:31:56;;;;;;;;;;;;;;;;;;5032333;28;21111;-80
2023/09/06 11:34:29;;;;;;;;;;;;;;;;;;5034655;28;19916;-83
2023/09/06 11:36:55;;;;;;;;;;;;;;;;;;5034852;28;20291;-81
2023/09/06 11:39:28;;;;;;;;;;;;;;;;;;5029476;28;20359;-79
2023/09/06 11:41:54;;;;;;;;;;;;;;;;;;5026622;28;20043;-83
2023/09/06 11:44:21;;;;;;;;;;;;;;;;;;5029468;28;20015;-82
2023/09/06 11:46:48;;;;;;;;;;;;;;;;;;5029219;28;19919;-77
2023/09/06 11:49:14;;;;;;;;;;;;;;;;;;5026866;28;19929;-76
2023/09/06 11:51:41;;;;;;;;;;;;;;;;;;5029662;28;19962;-80
2023/09/06 11:54:09;;;;;;;;;;;;;;;;;;5026578;28;20396;-81
2023/09/06 11:56:36;;;;;;;;;;;;;;;;;;5027374;28;20339;-81
2023/09/06 11:59:06;;;;;;;;;;;;;;;;;;5030164;28;19917;-78
2023/09/06 12:01:34;;;;;;;;;;;;;;;;;;5026515;28;19905;-78
2023/09/06 12:04:01;;;;;;;;;;;;;;;;;;5033894;28;20374;-80
2023/09/06 12:06:29;;;;;;;;;;;;;;;;;;5033684;28;19913;-81
2023/09/06 12:08:54;;;;;;;;;;;;;;;;;;5036177;28;19905;-80
2023/09/06 12:11:21;;;;;;;;;;;;;;;;;;5039117;28;19920;-79
2023/09/06 12:13:46;;;;;;;;;;;;;;;;;;5028623;28;19915;-79
2023/09/06 12:16:12;;;;;;;;;;;;;;;;;;5026802;28;19920;-82
2023/09/06 12:18:37;;;;;;;;;;;;;;;;;;5026204;28;19924;-79
2023/09/06 12:21:05;;;;;;;;;;;;;;;;;;5026615;28;20225;-78
2023/09/06 12:23:30;;;;;;;;;;;;;;;;;;5025829;28;19917;-82
2023/09/06 12:25:55;;;;;;;;;;;;;;;;;;5029134;28;20353;-77
2023/09/06 12:28:20;;;;;;;;;;;;;;;;;;5038014;28;20003;-81
2023/09/06 12:30:46;;;;;;;;;;;;;;;;;;5028232;28;19995;-80
2023/09/06 12:33:13;;;;;;;;;;;;;;;;;;5025770;28;19908;-80
2023/09/06 12:35:40;;;;;;;;;;;;;;;;;;5027712;28;20030;-80
2023/09/06 12:38:08;;;;;;;;;;;;;;;;;;5036679;28;19920;-83
2023/09/06 12:40:33;;;;;;;;;;;;;;;;;;5040308;28;19909;-81
2023/09/06 12:42:58;;;;;;;;;;;;;;;;;;5029945;28;20236;-78
2023/09/06 12:45:24;;;;;;;;;;;;;;;;;;5026185;28;19917;-81
2023/09/06 12:47:50;;;;;;;;;;;;;;;;;;5028191;28;19913;-79
2023/09/06 12:50:15;;;;;;;;;;;;;;;;;;5027708;28;19962;-79
2023/09/06 12:52:40;;;;;;;;;;;;;;;;;;5039617;28;20385;-79
2023/09/06 12:55:05;;;;;;;;;;;;;;;;;;5028635;28;19948;-77
2023/09/06 12:57:31;;;;;;;;;;;;;;;;;;5026091;28;19913;-75
2023/09/06 12:59:56;;;;;;;;;;;;;;;;;;5024503;28;19909;-74
2023/09/06 13:02:21;;;;;;;;;;;;;;;;;;5025517;28;19934;-73
2023/09/06 13:04:47;;;;;;;;;;;;;;;;;;5025203;28;21014;-78
2023/09/06 13:07:12;;;;;;;;;;;;;;;;;;5029432;28;19919;-77
2023/09/06 13:09:37;;;;;;;;;;;;;;;;;;5032689;28;20015;-74
2023/09/06 13:12:02;;;;;;;;;;;;;;;;;;5026110;28;19912;-75
2023/09/06 13:14:29;;;;;;;;;;;;;;;;;;5025908;28;19936;-81
2023/09/06 13:16:54;;;;;;;;;;;;;;;;;;5026574;28;19912;-80
2023/09/06 13:19:20;;;;;;;;;;;;;;;;;;5025512;28;20019;-79
2023/09/06 13:21:45;;;;;;;;;;;;;;;;;;5027789;28;19916;-78
2023/09/06 13:24:12;;;;;;;;;;;;;;;;;;5039023;28;19908;-84
2023/09/06 13:26:38;;;;;;;;;;;;;;;;;;5038600;28;19991;-83
2023/09/06 13:29:04;;;;;;;;;;;;;;;;;;5024227;28;19955;-77
2023/09/06 13:31:30;;;;;;;;;;;;;;;;;;5039092;28;20371;-76
2023/09/06 13:33:55;;;;;;;;;;;;;;;;;;5038235;28;19917;-78
2023/09/06 13:36:21;;;;;;;;;;;;;;;;;;5038654;28;20011;-76
2023/09/06 13:38:46;;;;;;;;;;;;;;;;;;5038023;28;19908;-75
2023/09/06 13:41:12;;;;;;;;;;;;;;;;;;5022742;28;19916;-77
2023/09/06 13:43:37;;;;;;;;;;;;;;;;;;5027545;28;20377;-75
2023/09/06 13:46:02;;;;;;;;;;;;;;;;;;5027488;28;19920;-76
2023/09/06 13:48:27;;;;;;;;;;;;;;;;;;5022686;28;19928;-76
2023/09/06 13:50:52;;;;;;;;;;;;;;;;;;5027552;28;20046;-75
2023/09/06 13:53:18;;;;;;;;;;;;;;;;;;5041646;28;20003;-74
2023/09/06 13:55:43;;;;;;;;;;;;;;;;;;5040336;28;19917;-75
2023/09/06 13:58:10;;;;;;;;;;;;;;;;;;5037392;28;21308;-74
2023/09/06 14:00:35;;;;;;;;;;;;;;;;;;5026330;28;20005;-76
2023/09/06 14:03:01;;;;;;;;;;;;;;;;;;5023005;28;19962;-76
2023/09/06 14:05:26;;;;;;;;;;;;;;;;;;5028940;28;20305;-75
2023/09/06 14:07:52;;;;;;;;;;;;;;;;;;5036150;28;19913;-79
2023/09/06 14:10:17;;;;;;;;;;;;;;;;;;5028920;28;19912;-75
2023/09/06 14:12:42;;;;;;;;;;;;;;;;;;5020071;28;19983;-75
2023/09/06 14:15:08;;;;;;;;;;;;;;;;;;5018306;28;20396;-75
2023/09/06 14:17:33;;;;;;;;;;;;;;;;;;5016444;28;19928;-74
2023/09/06 14:19:58;;;;;;;;;;;;;;;;;;5046005;28;20387;-79
2023/09/06 14:22:24;;;;;;;;;;;;;;;;;;5035914;28;19912;-79
2023/09/06 14:24:49;;;;;;;;;;;;;;;;;;5025624;28;19913;-79
2023/09/06 14:27:16;;;;;;;;;;;;;;;;;;5026548;28;19913;-78
2023/09/06 14:29:41;;;;;;;;;;;;;;;;;;5019820;28;20367;-79
2023/09/06 14:32:06;;;;;;;;;;;;;;;;;;5024330;28;19912;-80
2023/09/06 14:34:31;;;;;;;;;;;;;;;;;;5024618;28;20011;-79
2023/09/06 14:36:56;;;;;;;;;;;;;;;;;;5020041;28;19916;-78
2023/09/06 14:39:23;;;;;;;;;;;;;;;;;;5021894;28;19909;-79
2023/09/06 14:41:48;;;;;;;;;;;;;;;;;;5025922;28;19913;-80
2023/09/06 14:44:16;;;;;;;;;;;;;;;;;;5027978;28;20365;-78
2023/09/06 14:46:43;;;;;;;;;;;;;;;;;;5029411;28;19974;-80
2023/09/06 14:49:09;;;;;;;;;;;;;;;;;;5025824;28;20610;-79
2023/09/06 14:51:34;;;;;;;;;;;;;;;;;;5027630;28;19909;-80
2023/09/06 14:53:59;;;;;;;;;;;;;;;;;;5026713;28;19912;-78
2023/09/06 14:56:24;;;;;;;;;;;;;;;;;;5011941;28;19925;-77
2023/09/06 14:58:50;;;;;;;;;;;;;;;;;;5029274;28;20516;-79
2023/09/06 15:01:15;;;;;;;;;;;;;;;;;;5024812;28;19912;-79
2023/09/06 15:03:40;;;;;;;;;;;;;;;;;;5028751;28;20367;-80
2023/09/06 15:06:05;;;;;;;;;;;;;;;;;;5043384;28;19912;-79
2023/09/06 15:08:30;;;;;;;;;;;;;;;;;;5027512;28;20007;-78
2023/09/06 15:10:56;;;;;;;;;;;;;;;;;;5029792;28;19912;-80
2023/09/06 15:13:21;;;;;;;;;;;;;;;;;;5022193;28;20378;-80
2023/09/06 15:15:48;;;;;;;;;;;;;;;;;;5029658;28;19925;-80
2023/09/06 15:18:13;;;;;;;;;;;;;;;;;;5021637;28;20000;-79
2023/09/06 15:20:38;;;;;;;;;;;;;;;;;;5027766;28;19932;-80
2023/09/06 15:23:04;;;;;;;;;;;;;;;;;;5026991;28;20223;-76
2023/09/06 15:25:30;;;;;;;;;;;;;;;;;;5042692;28;19923;-77
2023/09/06 15:27:55;;;;;;;;;;;;;;;;;;5033926;28;19921;-79
2023/09/06 15:30:20;;;;;;;;;;;;;;;;;;5031578;28;19913;-79
2023/09/06 15:32:45;;;;;;;;;;;;;;;;;;5031596;28;19959;-84
2023/09/06 15:35:12;;;;;;;;;;;;;;;;;;5032384;28;19927;-79
2023/09/06 15:37:37;;;;;;;;;;;;;;;;;;5041746;28;19924;-80
2023/09/06 15:40:04;;;;;;;;;;;;;;;;;;5042402;28;19909;-80
2023/09/06 15:42:30;;;;;;;;;;;;;;;;;;5032565;28;20277;-83
2023/09/06 15:44:56;;;;;;;;;;;;;;;;;;5027661;28;19923;-85
2023/09/06 15:47:21;;;;;;;;;;;;;;;;;;5036603;28;20000;-80
2023/09/06 15:49:50;;;;;;;;;;;;;;;;;;5032685;28;20796;-81
2023/09/06 15:52:15;;;;;;;;;;;;;;;;;;5040998;28;19927;-80
2023/09/06 15:54:40;;;;;;;;;;;;;;;;;;5041286;28;20310;-83
2023/09/06 15:57:05;;;;;;;;;;;;;;;;;;5032355;28;19991;-83
2023/09/06 15:59:30;;;;;;;;;;;;;;;;;;5032542;28;19924;-79
2023/09/06 16:01:56;;;;;;;;;;;;;;;;;;5033196;28;20290;-78
2023/09/06 16:04:21;;;;;;;;;;;;;;;;;;5038746;28;19970;-81
2023/09/06 16:06:46;;;;;;;;;;;;;;;;;;5042069;28;19924;-78
2023/09/06 16:09:12;;;;;;;;;;;;;;;;;;5042873;28;20302;-78
2023/09/06 16:11:37;;;;;;;;;;;;;;;;;;5039359;28;20301;-77
2023/09/06 16:14:03;;;;;;;;;;;;;;;;;;5030124;28;19913;-78
2023/09/06 16:16:29;;;;;;;;;;;;;;;;;;5036712;28;19947;-80
2023/09/06 16:18:54;;;;;;;;;;;;;;;;;;5040642;28;20347;-80
2023/09/06 16:21:19;;;;;;;;;;;;;;;;;;5027797;28;19928;-79
2023/09/06 16:23:44;;;;;;;;;;;;;;;;;;5034808;28;20320;-82
2023/09/06 16:26:09;;;;;;;;;;;;;;;;;;5053056;28;19909;-78
2023/09/06 16:28:34;;;;;;;;;;;;;;;;;;5038962;28;20015;-78
2023/09/06 16:31:00;;;;;;;;;;;;;;;;;;5042635;28;19935;-81
2023/09/06 16:33:25;;;;;;;;;;;;;;;;;;5055699;28;19947;-80
2023/09/06 16:35:50;;;;;;;;;;;;;;;;;;5034350;28;20672;-81